Birmingham, Alabama
Current Conditions -  °F | °C
As of 8:53 PM on Monday 20 Oct 2014 (Local Time) from KBHM Reporting Station
Clear Clear  
Wind Chill: 14°   Ceiling: Unl
Heat Index: 14°   Visibility: 10mi
Dew Point: 11°   Wind: 0mph
Humidity: 81%   Direction: NA
Pressure: 30.05"   Gusts: NA
Location:  33.52°N, 86.81°W
Report Text: KBHM 210153Z 00000KT 10SM CLR 14/11 A3005 RMK AO2 SLP173 T01440111
Loading
Personal Weather Stations






























Interactive Weather Map
Tropical Storm Tracking
New forecast layout! Learn more

10-Day Weather Forecast

Advertisements
Track Severe Weather on mobile